createdAt,value
2018-05-07T00:02:18.689Z,102016.19
2018-05-07T00:04:46.778Z,102013.88
2018-05-07T00:07:15.370Z,102009.55
2018-05-07T00:09:43.495Z,102005.52
2018-05-07T00:12:11.516Z,102005.03
2018-05-07T00:14:39.690Z,102006.13
2018-05-07T00:17:07.753Z,101998.77
2018-05-07T00:19:35.852Z,101999.34
2018-05-07T00:22:03.939Z,101998.88
2018-05-07T00:24:32.022Z,101994.16
2018-05-07T00:27:00.122Z,101999.27
2018-05-07T00:29:33.826Z,102000.30
2018-05-07T00:32:01.943Z,101997.38
2018-05-07T00:34:30.021Z,102002.09
2018-05-07T00:36:58.158Z,101994.48
2018-05-07T00:39:26.274Z,101991.69
2018-05-07T00:41:59.926Z,101994.80
2018-05-07T00:44:28.007Z,101993.98
2018-05-07T00:46:56.114Z,102001.09
2018-05-07T00:49:24.218Z,101993.69
2018-05-07T00:51:52.291Z,101993.12
2018-05-07T00:54:20.453Z,101986.55
2018-05-07T00:56:48.964Z,101989.97
2018-05-07T00:59:17.014Z,101994.78
2018-05-07T01:01:45.101Z,101993.29
2018-05-07T01:04:13.203Z,101989.45
2018-05-07T01:06:41.301Z,101985.47
2018-05-07T01:09:09.391Z,101987.95
2018-05-07T01:11:37.475Z,101994.68
2018-05-07T01:14:05.554Z,101991.03
2018-05-07T01:16:33.691Z,101996.80
2018-05-07T01:19:01.821Z,101994.75
2018-05-07T01:21:29.886Z,101991.77
2018-05-07T01:23:58.244Z,102000.44
2018-05-07T01:26:27.123Z,102000.95
2018-05-07T01:28:56.068Z,102008.88
2018-05-07T01:31:24.159Z,102004.55
2018-05-07T01:33:53.202Z,102003.91
2018-05-07T01:36:21.350Z,102002.64
2018-05-07T01:38:49.408Z,102005.44
2018-05-07T01:41:17.507Z,102001.95
2018-05-07T01:43:51.420Z,102001.62
2018-05-07T01:46:19.503Z,101999.43
2018-05-07T01:48:47.587Z,102003.37
2018-05-07T01:51:15.714Z,102002.29
2018-05-07T01:53:43.853Z,101992.48
2018-05-07T01:56:11.903Z,101994.78
2018-05-07T01:58:40.011Z,101995.76
2018-05-07T02:01:08.093Z,101999.66
2018-05-07T02:03:37.003Z,101997.91
2018-05-07T02:06:05.308Z,101997.58
2018-05-07T02:08:33.368Z,101993.59
2018-05-07T02:11:01.455Z,101992.66
2018-05-07T02:13:29.540Z,101989.75
2018-05-07T02:15:57.693Z,101994.09
2018-05-07T02:31:25.823Z,101989.09
2018-05-07T02:33:54.555Z,101986.03
2018-05-07T02:36:22.639Z,101990.98
2018-05-07T02:38:50.879Z,101987.91
2018-05-07T02:41:18.891Z,101991.55
2018-05-07T02:43:46.983Z,101994.02
2018-05-07T02:46:15.105Z,101993.70
2018-05-07T02:48:43.195Z,101988.19
2018-05-07T02:51:11.295Z,101985.07
2018-05-07T02:53:39.365Z,101981.75
2018-05-07T02:56:07.463Z,101983.52
2018-05-07T02:58:35.567Z,101981.00
2018-05-07T03:01:03.651Z,101988.03
2018-05-07T03:03:32.467Z,101984.03
2018-05-07T03:06:00.551Z,101978.69
2018-05-07T03:08:28.634Z,101971.31
2018-05-07T03:10:56.755Z,101974.44
2018-05-07T03:13:25.015Z,101982.77
2018-05-07T03:15:53.124Z,101979.19
2018-05-07T03:18:21.219Z,101977.75
2018-05-07T03:20:49.291Z,101976.53
2018-05-07T03:23:17.379Z,101968.45
2018-05-07T03:25:45.464Z,101971.59
2018-05-07T03:28:13.559Z,101968.37
2018-05-07T03:30:41.679Z,101974.07
2018-05-07T03:33:10.662Z,101967.27
2018-05-07T03:35:38.751Z,101966.83
2018-05-07T03:38:07.588Z,101959.91
2018-05-07T03:40:36.519Z,101957.87
2018-05-07T03:43:04.557Z,101961.31
2018-05-07T03:45:32.638Z,101963.78
2018-05-07T03:48:01.359Z,101957.44
2018-05-07T03:50:29.439Z,101957.28
2018-05-07T03:52:57.531Z,101953.31
2018-05-07T03:55:25.629Z,101951.00
2018-05-07T03:57:53.751Z,101946.84
2018-05-07T04:00:22.729Z,101942.84
2018-05-07T04:02:50.827Z,101949.80
2018-05-07T04:05:18.939Z,101946.74
2018-05-07T04:07:52.725Z,101948.69
2018-05-07T04:10:26.707Z,101944.30
2018-05-07T04:12:54.793Z,101942.02
2018-05-07T04:15:22.947Z,101944.16
2018-05-07T04:18:03.787Z,101939.78
2018-05-07T04:23:47.537Z,101944.58
2018-05-07T04:26:15.641Z,101942.98
2018-05-07T04:28:43.935Z,101949.70
2018-05-07T04:31:12.063Z,101945.48
2018-05-07T04:33:40.147Z,101946.50
2018-05-07T04:36:09.174Z,101944.43
2018-05-07T04:38:37.328Z,101947.97
2018-05-07T04:41:05.331Z,101946.41
2018-05-07T04:43:33.830Z,101950.49
2018-05-07T04:46:01.891Z,101956.03
2018-05-07T04:48:30.751Z,101959.48
2018-05-07T04:50:59.140Z,101959.14
2018-05-07T04:53:27.225Z,101961.75
2018-05-07T04:55:55.310Z,101955.13
2018-05-07T04:58:23.392Z,101964.89
2018-05-07T05:00:51.484Z,101961.01
2018-05-07T05:03:19.901Z,101962.92
2018-05-07T05:05:48.945Z,101956.08
2018-05-07T05:08:17.041Z,101967.27
2018-05-07T05:10:45.147Z,101963.25
2018-05-07T05:13:13.344Z,101963.96
2018-05-07T05:15:41.422Z,101967.45
2018-05-07T05:18:09.519Z,101968.19
2018-05-07T05:20:37.611Z,101967.60
2018-05-07T05:23:05.700Z,101969.05
2018-05-07T05:25:34.067Z,101964.52
2018-05-07T05:28:08.620Z,101966.66
2018-05-07T05:30:36.840Z,101966.73
2018-05-07T05:33:04.990Z,101968.68
2018-05-07T05:35:33.104Z,101970.80
2018-05-07T05:38:01.235Z,101967.42
2018-05-07T05:40:29.297Z,101971.42
2018-05-07T05:42:57.395Z,101968.56
2018-05-07T05:45:25.476Z,101972.75
2018-05-07T05:47:53.567Z,101968.62
2018-05-07T05:50:21.671Z,101964.03
2018-05-07T05:52:49.769Z,101965.56
2018-05-07T05:55:17.872Z,101962.27
2018-05-07T05:57:45.952Z,101958.79
2018-05-07T06:00:14.074Z,101954.11
2018-05-07T06:02:42.168Z,101960.05
2018-05-07T06:05:11.050Z,101957.00
2018-05-07T06:07:39.859Z,101956.84
2018-05-07T06:10:08.233Z,101952.25
2018-05-07T06:12:36.630Z,101955.40
2018-05-07T06:15:04.738Z,101953.70
2018-05-07T06:17:32.842Z,101948.19
2018-05-07T06:20:00.937Z,101951.24
2018-05-07T06:22:29.017Z,101947.34
2018-05-07T06:24:57.129Z,101942.20
2018-05-07T06:27:25.315Z,101942.09
2018-05-07T06:29:53.328Z,101934.30
2018-05-07T06:32:21.449Z,101940.88
2018-05-07T06:34:49.523Z,101941.47
2018-05-07T06:37:17.609Z,101934.56
2018-05-07T06:39:45.753Z,101940.32
2018-05-07T06:42:13.840Z,101947.27
2018-05-07T06:44:42.795Z,101946.98
2018-05-07T06:47:10.891Z,101940.80
2018-05-07T06:49:39.757Z,101937.21
2018-05-07T06:52:08.704Z,101946.72
2018-05-07T06:54:36.782Z,101943.05
2018-05-07T06:57:04.874Z,101943.56
2018-05-07T06:59:33.853Z,101938.69
2018-05-07T07:02:01.961Z,101935.41
2018-05-07T07:04:30.384Z,101944.25
2018-05-07T07:06:58.488Z,101937.94
2018-05-07T07:09:26.577Z,101941.45
2018-05-07T07:11:54.754Z,101942.12
2018-05-07T07:14:22.832Z,101944.00
2018-05-07T07:16:50.932Z,101945.66
2018-05-07T07:19:19.019Z,101946.25
2018-05-07T07:21:52.658Z,101939.97
2018-05-07T07:24:20.695Z,101947.30
2018-05-07T07:26:48.780Z,101936.44
2018-05-07T07:29:17.856Z,101941.73
2018-05-07T07:31:45.964Z,101932.28
2018-05-07T07:34:16.055Z,101932.11
2018-05-07T07:36:44.135Z,101927.20
2018-05-07T07:39:12.233Z,101924.11
2018-05-07T07:41:40.570Z,101928.85
2018-05-07T07:44:08.740Z,101934.70
2018-05-07T07:46:37.123Z,101927.34
2018-05-07T07:49:05.280Z,101930.89
2018-05-07T07:51:34.231Z,101934.05
2018-05-07T07:54:06.345Z,101929.45
2018-05-07T07:56:34.477Z,101925.14
2018-05-07T07:59:02.542Z,101924.16
2018-05-07T08:14:30.643Z,101930.47
2018-05-07T08:16:58.735Z,101929.61
2018-05-07T08:19:26.816Z,101933.41
2018-05-07T08:21:55.332Z,101928.20
2018-05-07T08:24:23.430Z,101930.53
2018-05-07T08:26:51.517Z,101932.74
2018-05-07T08:29:19.702Z,101930.75
2018-05-07T08:31:47.777Z,101925.48
2018-05-07T08:34:16.710Z,101926.84
2018-05-07T08:36:44.946Z,101932.77
2018-05-07T08:39:13.043Z,101925.18
2018-05-07T08:41:41.116Z,101924.13
2018-05-07T08:44:09.227Z,101925.40
2018-05-07T08:46:37.314Z,101922.00
2018-05-07T08:49:05.407Z,101926.52
2018-05-07T08:51:33.697Z,101926.96
2018-05-07T08:54:01.795Z,101922.72
2018-05-07T08:56:29.858Z,101925.20
2018-05-07T08:58:58.162Z,101919.31
2018-05-07T09:01:26.291Z,101918.34
2018-05-07T09:03:54.359Z,101907.73
2018-05-07T09:06:22.465Z,101908.11
2018-05-07T09:08:50.575Z,101910.09
2018-05-07T09:11:18.664Z,101898.05
2018-05-07T09:13:46.752Z,101902.96
2018-05-07T09:16:14.859Z,101905.58
2018-05-07T09:18:42.935Z,101903.14
2018-05-07T09:21:11.044Z,101898.56
2018-05-07T09:23:39.192Z,101901.92
2018-05-07T09:26:07.267Z,101900.45
2018-05-07T09:28:35.356Z,101899.73
2018-05-07T09:31:03.467Z,101899.92
2018-05-07T09:33:31.599Z,101898.04
2018-05-07T09:36:00.630Z,101904.17
2018-05-07T09:38:28.775Z,101904.27
2018-05-07T09:40:56.872Z,101895.94
2018-05-07T09:43:24.963Z,101896.80
2018-05-07T09:45:53.076Z,101894.95
2018-05-07T09:48:21.204Z,101898.33
2018-05-07T09:50:49.313Z,101892.84
2018-05-07T09:53:17.667Z,101895.78
2018-05-07T09:55:45.837Z,101895.60
2018-05-07T09:58:13.851Z,101897.19
2018-05-07T10:00:41.990Z,101891.97
2018-05-07T10:03:10.089Z,101886.81
2018-05-07T10:05:38.183Z,101893.20
2018-05-07T10:08:06.287Z,101893.81
2018-05-07T10:10:34.378Z,101887.72
2018-05-07T10:13:02.486Z,101887.05
2018-05-07T10:15:30.587Z,101886.06
2018-05-07T10:17:58.706Z,101871.33
2018-05-07T10:20:26.816Z,101872.86
2018-05-07T10:22:54.902Z,101873.41
2018-05-07T10:25:22.991Z,101867.20
2018-05-07T10:40:51.182Z,101851.53
2018-05-07T10:43:19.248Z,101850.32
2018-05-07T10:45:47.369Z,101860.08
2018-05-07T10:48:15.454Z,101860.36
2018-05-07T10:50:43.542Z,101858.06
2018-05-07T10:53:11.663Z,101859.00
2018-05-07T10:55:40.074Z,101851.46
2018-05-07T10:58:08.160Z,101858.19
2018-05-07T11:00:36.256Z,101856.31
2018-05-07T11:03:04.354Z,101852.57
2018-05-07T11:05:33.454Z,101848.23
2018-05-07T11:08:01.542Z,101846.40
2018-05-07T11:10:29.640Z,101839.33
2018-05-07T11:12:57.734Z,101850.56
2018-05-07T11:15:25.854Z,101846.51
2018-05-07T11:17:54.178Z,101840.59
2018-05-07T11:20:27.853Z,101840.08
2018-05-07T11:22:55.982Z,101837.47
2018-05-07T11:25:24.058Z,101827.98
2018-05-07T11:27:52.170Z,101833.76
2018-05-07T11:30:20.263Z,101835.46
2018-05-07T11:32:48.338Z,101831.20
2018-05-07T11:35:16.423Z,101822.88
2018-05-07T11:37:44.538Z,101830.04
2018-05-07T11:40:12.676Z,101813.00
2018-05-07T11:42:40.758Z,101811.42
2018-05-07T11:45:08.869Z,101808.27
2018-05-07T11:47:36.999Z,101804.50
2018-05-07T11:50:05.038Z,101799.88
2018-05-07T11:52:33.156Z,101802.62
2018-05-07T11:55:01.269Z,101794.25
2018-05-07T11:57:29.378Z,101793.09
2018-05-07T11:59:57.518Z,101798.27
2018-05-07T12:02:25.610Z,101792.75
2018-05-07T12:04:53.690Z,101786.55
2018-05-07T12:07:21.812Z,101784.08
2018-05-07T12:09:49.906Z,101789.23
2018-05-07T12:12:17.987Z,101783.81
2018-05-07T12:14:46.455Z,101779.20
2018-05-07T12:17:15.560Z,101781.50
2018-05-07T12:19:43.623Z,101775.91
2018-05-07T12:22:11.764Z,101774.38
2018-05-07T12:24:39.882Z,101769.41
2018-05-07T12:27:07.979Z,101771.28
2018-05-07T12:29:36.188Z,101762.88
2018-05-07T12:32:04.290Z,101761.79
2018-05-07T12:34:32.708Z,101768.87
2018-05-07T12:37:00.803Z,101763.73
2018-05-07T12:39:29.077Z,101757.81
2018-05-07T12:41:57.153Z,101756.14
2018-05-07T12:44:25.602Z,101751.28
2018-05-07T12:46:53.710Z,101746.95
2018-05-07T12:49:21.870Z,101747.28
2018-05-07T12:51:49.951Z,101743.78
2018-05-07T12:54:18.051Z,101742.28
2018-05-07T12:56:51.131Z,101736.88
2018-05-07T12:59:19.221Z,101745.55
2018-05-07T13:01:47.695Z,101745.12
2018-05-07T13:04:16.484Z,101739.70
2018-05-07T13:06:46.411Z,101741.13
2018-05-07T13:09:14.467Z,101728.67
2018-05-07T13:11:42.674Z,101721.70
2018-05-07T13:14:11.059Z,101725.90
2018-05-07T13:16:39.145Z,101729.56
2018-05-07T13:19:07.265Z,101723.44
2018-05-07T13:21:35.359Z,101727.34
2018-05-07T13:24:03.441Z,101722.58
2018-05-07T13:26:31.535Z,101716.09
2018-05-07T13:28:59.627Z,101713.00
2018-05-07T13:31:27.727Z,101716.16
2018-05-07T13:34:01.295Z,101713.43
2018-05-07T13:36:29.406Z,101704.22
2018-05-07T13:38:57.490Z,101700.55
2018-05-07T13:41:25.603Z,101700.62
2018-05-07T13:43:53.704Z,101709.45
2018-05-07T13:46:21.781Z,101697.16
2018-05-07T13:48:49.859Z,101698.88
2018-05-07T13:51:17.993Z,101692.34
2018-05-07T13:53:46.065Z,101691.60
2018-05-07T13:56:14.141Z,101685.39
2018-05-07T13:58:42.252Z,101680.00
2018-05-07T14:01:10.660Z,101679.05
2018-05-07T14:03:38.789Z,101674.51
2018-05-07T14:06:06.959Z,101672.72
2018-05-07T14:08:35.167Z,101664.92
2018-05-07T14:11:03.163Z,101670.26
2018-05-07T14:13:31.359Z,101669.84
2018-05-07T14:15:59.432Z,101665.88
2018-05-07T14:18:27.520Z,101656.28
2018-05-07T14:20:55.668Z,101654.12
2018-05-07T14:23:23.786Z,101647.84
2018-05-07T14:25:51.848Z,101650.48
2018-05-07T14:28:19.963Z,101639.85
2018-05-07T14:30:48.145Z,101643.02
2018-05-07T14:33:16.215Z,101645.86
2018-05-07T14:35:44.315Z,101642.69
2018-05-07T14:38:17.870Z,101639.53
2018-05-07T14:40:46.016Z,101636.64
2018-05-07T14:43:14.112Z,101638.67
2018-05-07T14:45:42.203Z,101626.07
2018-05-07T14:48:10.336Z,101632.20
2018-05-07T14:50:38.436Z,101627.30
2018-05-07T15:06:06.598Z,101612.09
2018-05-07T15:08:34.672Z,101616.20
2018-05-07T15:11:02.791Z,101615.63
2018-05-07T15:13:31.616Z,101604.58
2018-05-07T15:15:59.776Z,101607.14
2018-05-07T15:18:27.863Z,101607.45
2018-05-07T15:20:56.015Z,101600.23
2018-05-07T15:23:24.238Z,101606.66
2018-05-07T15:25:52.284Z,101600.38
2018-05-07T15:28:20.405Z,101600.28
2018-05-07T15:30:48.593Z,101601.31
2018-05-07T15:33:16.764Z,101591.72
2018-05-07T15:35:44.863Z,101595.03
2018-05-07T15:38:12.964Z,101594.52
2018-05-07T15:40:41.075Z,101586.59
2018-05-07T15:43:09.179Z,101588.14
2018-05-07T15:45:37.283Z,101592.07
2018-05-07T15:48:05.412Z,101590.70
2018-05-07T15:50:34.274Z,101593.52
2018-05-07T15:53:02.735Z,101584.33
2018-05-07T15:55:30.845Z,101576.06
2018-05-07T15:57:59.749Z,101578.22
2018-05-07T16:00:27.883Z,101577.16
2018-05-07T16:15:56.040Z,101570.41
2018-05-07T16:18:24.795Z,101569.47
2018-05-07T16:20:53.722Z,101564.80
2018-05-07T16:23:22.088Z,101558.36
2018-05-07T16:25:49.990Z,101561.08
2018-05-07T16:28:23.658Z,101553.09
2018-05-07T16:30:57.351Z,101557.01
2018-05-07T16:33:25.407Z,101545.53
2018-05-07T16:35:53.557Z,101542.69
2018-05-07T16:38:21.651Z,101548.92
2018-05-07T16:40:49.779Z,101534.38
2018-05-07T16:43:17.912Z,101543.15
2018-05-07T16:45:46.004Z,101543.10
2018-05-07T16:48:14.122Z,101541.82
2018-05-07T16:50:42.284Z,101541.17
2018-05-07T16:53:10.383Z,101542.08
2018-05-07T16:55:38.481Z,101536.12
2018-05-07T16:58:06.596Z,101537.06
2018-05-07T17:00:35.327Z,101532.55
2018-05-07T17:03:03.425Z,101534.17
2018-05-07T17:05:31.544Z,101531.25
2018-05-07T17:07:59.632Z,101529.08
2018-05-07T17:10:27.911Z,101530.02
2018-05-07T17:12:56.791Z,101523.52
2018-05-07T17:15:30.536Z,101524.83
2018-05-07T17:18:04.131Z,101523.52
2018-05-07T17:20:32.239Z,101527.99
2018-05-07T17:23:00.327Z,101517.75
2018-05-07T17:25:28.416Z,101520.95
2018-05-07T17:27:56.708Z,101518.84
2018-05-07T17:30:24.800Z,101520.49
2018-05-07T17:32:52.999Z,101520.42
2018-05-07T17:35:21.103Z,101520.09
2018-05-07T17:37:49.252Z,101518.10
2018-05-07T17:40:17.738Z,101515.42
2018-05-07T17:42:45.919Z,101511.79
2018-05-07T17:45:25.759Z,101511.27
2018-05-07T17:48:05.918Z,101515.58
2018-05-07T17:50:33.961Z,101515.88
2018-05-07T17:53:02.077Z,101513.86
2018-05-07T17:55:30.276Z,101517.82
2018-05-07T17:57:58.356Z,101515.17
2018-05-07T18:00:26.478Z,101518.35
2018-05-07T18:02:54.575Z,101516.80
2018-05-07T18:05:28.138Z,101512.70
2018-05-07T18:07:56.249Z,101509.11
2018-05-07T18:10:25.449Z,101514.73
2018-05-07T18:12:54.008Z,101509.48
2018-05-07T18:15:22.182Z,101514.74
2018-05-07T18:17:51.193Z,101510.21
2018-05-07T18:20:19.258Z,101515.26
2018-05-07T18:22:47.655Z,101503.17
2018-05-07T18:25:15.803Z,101506.88
2018-05-07T18:27:49.330Z,101503.52
2018-05-07T18:30:17.440Z,101506.03
2018-05-07T18:32:45.541Z,101508.16
2018-05-07T18:35:13.656Z,101504.70
2018-05-07T18:37:41.785Z,101503.06
2018-05-07T18:40:09.884Z,101506.09
2018-05-07T18:42:37.985Z,101502.55
2018-05-07T18:45:06.114Z,101502.36
2018-05-07T18:47:35.046Z,101503.02
2018-05-07T18:50:03.160Z,101500.57
2018-05-07T18:52:31.294Z,101499.02
2018-05-07T18:54:59.395Z,101498.45
2018-05-07T18:57:32.966Z,101488.36
2018-05-07T19:00:06.517Z,101497.66
2018-05-07T19:02:34.618Z,101492.98
2018-05-07T19:05:02.717Z,101493.81
2018-05-07T19:07:30.823Z,101491.65
2018-05-07T19:09:58.925Z,101492.64
2018-05-07T19:12:27.047Z,101500.72
2018-05-07T19:14:55.158Z,101494.19
2018-05-07T19:17:23.251Z,101506.22
2018-05-07T19:19:51.383Z,101494.77
2018-05-07T19:22:19.451Z,101501.55
2018-05-07T19:24:47.551Z,101500.78
2018-05-07T19:27:15.676Z,101505.88
2018-05-07T19:29:44.060Z,101501.92
2018-05-07T19:32:12.154Z,101502.80
2018-05-07T19:34:40.276Z,101494.84
2018-05-07T19:37:08.372Z,101498.66
2018-05-07T19:39:36.463Z,101498.09
2018-05-07T19:42:04.569Z,101496.44
2018-05-07T19:44:32.673Z,101495.59
2018-05-07T19:47:00.763Z,101495.72
2018-05-07T19:49:28.863Z,101497.97
2018-05-07T19:51:56.963Z,101490.99
2018-05-07T19:54:25.056Z,101491.13
2018-05-07T19:56:53.892Z,101494.15
2018-05-07T19:59:21.998Z,101503.30
2018-05-07T20:01:50.088Z,101500.87
2018-05-07T20:04:18.208Z,101497.77
2018-05-07T20:06:46.308Z,101496.19
2018-05-07T20:09:14.451Z,101505.02
2018-05-07T20:11:42.511Z,101501.00
2018-05-07T20:14:11.322Z,101496.19
2018-05-07T20:16:39.415Z,101499.43
2018-05-07T20:19:07.516Z,101503.38
2018-05-07T20:21:36.540Z,101496.27
2018-05-07T20:24:04.620Z,101491.22
2018-05-07T20:26:38.376Z,101492.95
2018-05-07T20:29:06.522Z,101488.98
2018-05-07T20:31:34.616Z,101493.83
2018-05-07T20:34:02.753Z,101489.91
2018-05-07T20:36:31.665Z,101488.78
2018-05-07T20:38:59.788Z,101486.62
2018-05-07T20:41:27.911Z,101484.59
2018-05-07T20:43:56.042Z,101485.66
2018-05-07T20:46:24.128Z,101489.36
2018-05-07T20:48:57.752Z,101482.95
2018-05-07T20:51:26.172Z,101483.73
2018-05-07T20:53:54.274Z,101484.17
2018-05-07T20:56:22.462Z,101485.89
2018-05-07T20:58:50.553Z,101482.22
2018-05-07T21:01:18.791Z,101482.07
2018-05-07T21:03:46.789Z,101483.66
2018-05-07T21:06:15.199Z,101481.30
2018-05-07T21:08:43.286Z,101482.31
2018-05-07T21:11:11.406Z,101481.75
2018-05-07T21:13:39.516Z,101481.54
2018-05-07T21:16:07.627Z,101475.97
2018-05-07T21:18:35.732Z,101480.16
2018-05-07T21:21:03.822Z,101483.16
2018-05-07T21:23:32.796Z,101485.15
2018-05-07T21:26:00.888Z,101481.77
2018-05-07T21:28:29.180Z,101479.45
2018-05-07T21:30:57.313Z,101482.41
2018-05-07T21:33:25.419Z,101483.64
2018-05-07T21:35:53.523Z,101476.50
2018-05-07T21:38:21.671Z,101479.58
2018-05-07T21:40:49.796Z,101476.31
2018-05-07T21:43:17.910Z,101479.42
2018-05-07T21:45:46.026Z,101469.84
2018-05-07T21:48:19.631Z,101469.05
2018-05-07T21:50:53.356Z,101470.05
2018-05-07T21:53:21.460Z,101471.55
2018-05-07T21:55:49.563Z,101474.26
2018-05-07T21:58:17.678Z,101469.84
2018-05-07T22:00:45.844Z,101464.47
2018-05-07T22:03:13.996Z,101467.91
2018-05-07T22:05:42.085Z,101466.41
2018-05-07T22:08:10.199Z,101464.88
2018-05-07T22:10:38.296Z,101464.77
2018-05-07T22:13:06.396Z,101463.17
2018-05-07T22:15:34.581Z,101461.52
2018-05-07T22:18:02.659Z,101455.43
2018-05-07T22:20:30.752Z,101458.58
2018-05-07T22:22:58.867Z,101456.75
2018-05-07T22:25:26.969Z,101459.44
2018-05-07T22:27:55.070Z,101452.96
2018-05-07T22:30:23.168Z,101448.53
2018-05-07T22:32:51.270Z,101447.26
2018-05-07T22:35:19.992Z,101446.23
2018-05-07T22:37:48.108Z,101443.55
2018-05-07T22:40:16.235Z,101440.57
2018-05-07T22:42:44.538Z,101442.70
2018-05-07T22:45:12.690Z,101440.06
2018-05-07T22:47:40.801Z,101436.34
2018-05-07T22:50:08.892Z,101435.16
2018-05-07T22:52:37.050Z,101436.05
2018-05-07T22:55:08.142Z,101431.03
2018-05-07T22:57:36.239Z,101429.20
2018-05-07T23:00:05.246Z,101430.95
2018-05-07T23:02:33.345Z,101428.61
2018-05-07T23:05:01.530Z,101427.02
2018-05-07T23:07:29.559Z,101424.51
2018-05-07T23:09:57.651Z,101417.44
2018-05-07T23:12:25.783Z,101422.09
2018-05-07T23:14:59.337Z,101418.29
2018-05-07T23:17:27.433Z,101416.67
2018-05-07T23:19:55.550Z,101412.75
2018-05-07T23:22:23.690Z,101413.05
2018-05-07T23:24:51.811Z,101410.45
2018-05-07T23:27:19.904Z,101405.94
2018-05-07T23:29:48.003Z,101404.33
2018-05-07T23:32:16.140Z,101401.94
2018-05-07T23:34:44.230Z,101394.61
2018-05-07T23:37:12.322Z,101393.97
2018-05-07T23:39:40.430Z,101395.05
2018-05-07T23:42:08.536Z,101397.30
2018-05-07T23:44:36.635Z,101401.13
2018-05-07T23:47:04.751Z,101396.53
2018-05-07T23:49:32.831Z,101395.77
2018-05-07T23:52:00.923Z,101391.34
2018-05-07T23:54:29.025Z,101391.75
2018-05-07T23:56:57.147Z,101389.25
2018-05-07T23:59:25.273Z,101384.14
